Time;durP1;ratioP1;P1;durP2;ratioP2;P2;SDS_P1;SDS_P2;PMS_P1;PMS_P2;Temp;Humidity;BMP_temperature;BMP_pressure;BME280_temperature;BME280_humidity;BME280_pressure;Samples;Min_cycle;Max_cycle;Signal;HPM_P1;HPM_P2
2021/01/30 00:02:06;;;;;;;0.93;0.77;;;17.40;52.20;;;;;;5066162;28;20106;-36
2021/01/30 00:04:32;;;;;;;1.60;1.05;;;17.40;52.30;;;;;;5066068;28;20514;-36
2021/01/30 00:06:59;;;;;;;1.40;0.90;;;17.30;52.20;;;;;;5076182;28;20025;-36
2021/01/30 00:09:26;;;;;;;1.67;0.90;;;17.30;52.20;;;;;;5086057;28;20020;-36
2021/01/30 00:11:59;;;;;;;1.42;1.00;;;17.30;52.20;;;;;;5084123;28;20021;-36
2021/01/30 00:14:27;;;;;;;1.20;0.80;;;17.20;52.30;;;;;;5085091;28;20032;-36
2021/01/30 00:16:53;;;;;;;2.40;0.80;;;17.20;52.30;;;;;;5065248;28;20048;-36
2021/01/30 00:19:19;;;;;;;1.83;1.10;;;17.20;52.40;;;;;;5064355;28;20048;-36
2021/01/30 00:21:52;;;;;;;1.10;1.00;;;17.10;52.30;;;;;;5065660;28;20063;-36
2021/01/30 00:24:19;;;;;;;1.17;0.90;;;17.10;52.40;;;;;;5065697;28;20057;-36
2021/01/30 00:26:50;;;;;;;1.83;1.00;;;17.10;52.40;;;;;;5065350;28;20028;-36
2021/01/30 00:29:16;;;;;;;1.98;1.10;;;17.00;52.50;;;;;;5065728;28;20482;-36
2021/01/30 00:31:42;;;;;;;1.17;0.85;;;17.00;52.60;;;;;;5064145;28;20036;-36
2021/01/30 00:34:09;;;;;;;2.90;1.08;;;17.00;52.60;;;;;;5065542;28;20098;-36
2021/01/30 00:36:35;;;;;;;1.20;0.80;;;16.90;52.70;;;;;;5065367;28;20017;-36
2021/01/30 00:39:01;;;;;;;2.00;0.95;;;16.90;52.80;;;;;;5065426;28;20428;-37
2021/01/30 00:41:27;;;;;;;1.45;1.00;;;16.90;52.80;;;;;;5065714;28;20088;-36
2021/01/30 00:43:53;;;;;;;1.63;1.02;;;16.90;52.80;;;;;;5065405;28;20107;-36
2021/01/30 00:46:19;;;;;;;2.22;1.33;;;16.90;52.90;;;;;;5065003;28;20029;-36
2021/01/30 00:48:45;;;;;;;1.77;1.17;;;16.80;52.80;;;;;;5065133;28;20079;-36
2021/01/30 00:51:15;;;;;;;1.17;1.00;;;16.70;52.80;;;;;;5065273;28;20029;-36
2021/01/30 00:53:41;;;;;;;1.98;1.30;;;16.70;53.00;;;;;;5065255;28;20023;-36
2021/01/30 00:56:08;;;;;;;1.98;1.38;;;16.70;53.00;;;;;;5064519;28;20024;-36
2021/01/30 00:58:34;;;;;;;1.00;0.85;;;16.70;53.00;;;;;;5065024;28;20029;-37
2021/01/30 01:01:00;;;;;;;2.22;1.35;;;16.60;53.00;;;;;;5064648;28;20497;-36
2021/01/30 01:03:26;;;;;;;1.05;0.90;;;16.60;53.00;;;;;;5064834;28;20033;-36
2021/01/30 01:05:52;;;;;;;1.00;0.75;;;16.60;53.10;;;;;;5064789;28;20080;-36
2021/01/30 01:08:19;;;;;;;1.40;1.00;;;16.60;53.20;;;;;;5064920;28;20516;-36
2021/01/30 01:10:45;;;;;;;1.27;0.77;;;16.50;53.20;;;;;;5065021;28;20128;-36
2021/01/30 01:13:11;;;;;;;1.80;0.90;;;16.50;53.20;;;;;;5064708;28;20100;-36
2021/01/30 01:15:37;;;;;;;1.05;0.80;;;16.40;53.30;;;;;;5064389;28;20028;-36
2021/01/30 01:18:03;;;;;;;1.20;0.93;;;16.50;53.30;;;;;;5064764;28;20061;-36
2021/01/30 01:20:29;;;;;;;1.05;0.95;;;16.40;53.30;;;;;;5064719;28;20029;-36
2021/01/30 01:22:56;;;;;;;1.35;0.80;;;16.30;53.30;;;;;;5064443;28;20037;-36
2021/01/30 01:25:22;;;;;;;1.10;0.80;;;16.30;53.50;;;;;;5062940;28;20028;-36
2021/01/30 01:27:48;;;;;;;1.20;0.90;;;16.30;53.40;;;;;;5064318;28;20032;-36
2021/01/30 01:30:15;;;;;;;0.88;0.73;;;16.30;53.60;;;;;;5067180;28;20036;-36
2021/01/30 01:32:41;;;;;;;1.35;0.85;;;16.30;53.50;;;;;;5064352;28;20102;-36
2021/01/30 01:35:08;;;;;;;2.13;1.10;;;16.20;53.60;;;;;;5064541;28;20092;-36
2021/01/30 01:37:34;;;;;;;1.33;0.90;;;16.20;53.60;;;;;;5063927;28;20053;-36
2021/01/30 01:40:01;;;;;;;1.05;0.80;;;16.20;53.70;;;;;;5064486;28;20063;-35
2021/01/30 01:42:27;;;;;;;1.35;0.80;;;16.10;53.60;;;;;;5063765;28;20124;-36
2021/01/30 01:44:53;;;;;;;1.90;1.10;;;16.10;53.70;;;;;;5064231;28;20033;-36
2021/01/30 01:47:24;;;;;;;1.30;1.00;;;16.10;53.70;;;;;;5063718;28;20048;-36
2021/01/30 01:49:50;;;;;;;1.33;0.90;;;16.00;53.80;;;;;;5096396;28;20100;-36
2021/01/30 01:52:19;;;;;;;1.35;1.00;;;16.00;53.90;;;;;;5063841;28;20029;-36
2021/01/30 01:54:45;;;;;;;2.13;1.10;;;16.00;53.80;;;;;;5066675;28;20024;-36
2021/01/30 01:57:12;;;;;;;1.55;1.02;;;16.00;54.00;;;;;;5082409;28;20493;-36
2021/01/30 01:59:43;;;;;;;1.73;1.10;;;15.90;53.90;;;;;;5079716;28;20045;-35
2021/01/30 02:02:10;;;;;;;2.35;1.10;;;15.90;54.50;;;;;;5082590;28;20040;-36
2021/01/30 02:04:36;;;;;;;1.98;1.23;;;15.80;54.10;;;;;;5082569;28;20029;-36
2021/01/30 02:07:04;;;;;;;1.33;1.00;;;15.80;54.00;;;;;;5083695;28;20062;-36
2021/01/30 02:09:30;;;;;;;1.77;1.10;;;15.80;54.10;;;;;;5084081;28;20732;-35
2021/01/30 02:12:03;;;;;;;1.63;1.30;;;15.80;54.20;;;;;;5070038;28;20088;-35
2021/01/30 02:14:30;;;;;;;2.15;1.20;;;15.70;54.20;;;;;;5095910;28;20081;-35
2021/01/30 02:17:07;;;;;;;1.42;1.08;;;15.70;54.20;;;;;;5095683;28;20017;-35
2021/01/30 02:20:05;;;;;;;1.50;1.23;;;15.70;54.30;;;;;;5094241;28;20064;-35
2021/01/30 02:22:49;;;;;;;1.23;1.13;;;15.70;54.30;;;;;;5090669;28;20037;-35
2021/01/30 02:25:37;;;;;;;0.95;0.85;;;15.60;54.40;;;;;;5063762;28;20062;-35
2021/01/30 02:28:35;;;;;;;1.67;1.17;;;15.60;54.50;;;;;;5063093;28;20025;-37
2021/01/30 02:31:16;;;;;;;1.48;1.00;;;15.50;54.30;;;;;;5067255;28;20033;-36
2021/01/30 02:34:20;;;;;;;1.60;1.10;;;15.50;54.70;;;;;;5095600;28;20093;-36
2021/01/30 02:37:08;;;;;;;2.65;1.30;;;15.50;54.50;;;;;;5065035;28;20017;-36
2021/01/30 02:40:00;;;;;;;1.95;1.35;;;15.50;54.60;;;;;;5082651;28;20033;-36
2021/01/30 02:42:47;;;;;;;2.25;1.40;;;15.40;54.60;;;;;;5119092;28;20051;-36
2021/01/30 02:45:17;;;;;;;1.40;1.13;;;15.40;54.70;;;;;;5086431;28;20055;-36
2021/01/30 02:47:45;;;;;;;2.60;1.40;;;15.30;54.70;;;;;;5086114;28;20036;-36
2021/01/30 02:50:20;;;;;;;1.85;1.35;;;15.30;54.70;;;;;;5083478;28;20020;-36
2021/01/30 02:52:47;;;;;;;1.65;1.20;;;15.30;54.80;;;;;;5065977;28;20094;-36
2021/01/30 02:55:13;;;;;;;;;;;15.30;54.90;;;;;;5066289;28;20060;-36
2021/01/30 02:57:39;;;;;;;1.90;1.45;;;15.20;54.90;;;;;;5065686;28;19915;-36
2021/01/30 03:00:08;;;;;;;1.63;1.40;;;15.20;55.20;;;;;;5065949;28;20489;-36
2021/01/30 03:02:35;;;;;;;1.63;1.42;;;15.20;55.20;;;;;;5066969;28;20051;-36
2021/01/30 03:05:01;;;;;;;2.40;1.70;;;15.10;55.10;;;;;;5067274;28;20029;-36
2021/01/30 03:07:33;;;;;;;1.88;1.38;;;15.10;55.20;;;;;;5065581;28;20040;-36
2021/01/30 03:10:37;;;;;;;2.65;1.48;;;15.10;55.20;;;;;;5067275;28;20017;-36
2021/01/30 03:13:22;;;;;;;2.03;1.42;;;15.00;55.20;;;;;;5056323;28;20037;-36
2021/01/30 03:15:59;;;;;;;2.35;1.40;;;15.00;55.80;;;;;;5060962;28;20140;-36
2021/01/30 03:18:32;;;;;;;1.40;1.20;;;15.00;55.20;;;;;;5059406;28;20040;-36
2021/01/30 03:20:58;;;;;;;1.95;1.60;;;14.90;55.40;;;;;;5044269;28;20144;-36
2021/01/30 03:23:24;;;;;;;2.17;1.40;;;14.90;55.50;;;;;;5061002;28;20041;-36
2021/01/30 03:25:50;;;;;;;1.83;1.45;;;14.90;55.50;;;;;;5044223;28;20018;-36
2021/01/30 03:28:16;;;;;;;2.00;1.48;;;14.90;55.70;;;;;;5043943;28;20038;-36
2021/01/30 03:30:43;;;;;;;2.15;1.75;;;14.80;55.60;;;;;;5044199;28;20063;-36
2021/01/30 03:33:09;;;;;;;1.30;1.20;;;14.80;55.80;;;;;;5044085;28;20120;-36
2021/01/30 03:35:35;;;;;;;1.92;1.23;;;14.80;55.80;;;;;;5044295;28;20529;-36
2021/01/30 03:38:02;;;;;;;1.85;1.20;;;14.80;56.50;;;;;;5043842;28;20057;-36
2021/01/30 03:40:28;;;;;;;2.60;1.70;;;14.70;55.70;;;;;;5058564;28;20045;-36
2021/01/30 03:42:54;;;;;;;2.20;1.60;;;14.70;55.90;;;;;;5063810;28;20057;-36
2021/01/30 03:45:24;;;;;;;1.75;1.48;;;14.60;56.00;;;;;;5063757;28;20025;-36
2021/01/30 03:47:50;;;;;;;1.90;1.48;;;14.60;55.90;;;;;;5080856;28;20047;-36
2021/01/30 03:50:17;;;;;;;1.60;1.23;;;14.60;56.10;;;;;;5083934;28;20412;-36
2021/01/30 03:52:43;;;;;;;2.17;1.55;;;14.60;56.10;;;;;;5066460;28;20039;-36
2021/01/30 03:55:09;;;;;;;3.10;1.90;;;14.50;56.00;;;;;;5066139;28;20032;-36
2021/01/30 03:57:36;;;;;;;2.22;1.50;;;14.50;56.20;;;;;;5065974;28;20068;-36
2021/01/30 04:00:05;;;;;;;1.75;1.42;;;14.50;56.30;;;;;;5065965;28;20037;-36
2021/01/30 04:02:31;;;;;;;2.10;1.30;;;14.50;56.30;;;;;;5064778;28;20033;-36
2021/01/30 04:04:58;;;;;;;1.98;1.58;;;14.40;56.30;;;;;;5069983;28;20075;-36
2021/01/30 04:07:24;;;;;;;3.90;1.55;;;14.40;56.30;;;;;;5064552;28;20031;-36
2021/01/30 04:09:50;;;;;;;2.40;1.88;;;14.40;56.40;;;;;;5065740;28;20084;-36
2021/01/30 04:12:16;;;;;;;3.65;1.77;;;14.30;56.50;;;;;;5066520;28;20024;-36
2021/01/30 04:14:42;;;;;;;3.33;1.70;;;14.30;56.60;;;;;;5065788;28;20041;-36
2021/01/30 04:17:09;;;;;;;2.65;1.60;;;14.30;56.70;;;;;;5065926;28;20060;-36
2021/01/30 04:19:38;;;;;;;2.97;1.83;;;14.30;56.50;;;;;;5064246;28;20044;-36
2021/01/30 04:22:05;;;;;;;3.92;1.52;;;14.20;56.70;;;;;;5065714;28;20041;-36
2021/01/30 04:24:31;;;;;;;3.33;1.53;;;14.20;56.80;;;;;;5065731;28;20032;-36
2021/01/30 04:26:58;;;;;;;1.50;1.27;;;14.20;56.80;;;;;;5065758;28;20029;-36
2021/01/30 04:29:24;;;;;;;2.33;1.77;;;14.10;56.70;;;;;;5065378;28;20021;-36
2021/01/30 04:31:55;;;;;;;2.33;1.45;;;14.10;56.90;;;;;;5065631;28;20063;-36
2021/01/30 04:34:21;;;;;;;2.92;1.80;;;14.10;56.80;;;;;;5065287;28;20029;-36
2021/01/30 04:36:47;;;;;;;2.50;1.80;;;14.10;57.00;;;;;;5064102;28;20040;-36
2021/01/30 04:39:13;;;;;;;2.25;1.70;;;14.00;56.90;;;;;;5065160;28;20040;-36
2021/01/30 04:42:14;;;;;;;8.50;2.00;;;14.00;57.00;;;;;;5064519;28;20033;-36
2021/01/30 04:44:55;;;;;;;2.95;1.83;;;14.00;57.10;;;;;;5055919;28;20036;-36
2021/01/30 04:47:43;;;;;;;1.95;1.70;;;13.90;57.10;;;;;;5065256;28;20107;-36
2021/01/30 04:50:14;;;;;;;2.67;1.73;;;13.90;57.00;;;;;;5064879;28;20025;-36
2021/01/30 04:52:59;;;;;;;3.35;2.17;;;13.90;57.00;;;;;;5063629;28;20028;-35
2021/01/30 04:55:40;;;;;;;2.28;1.80;;;13.80;57.10;;;;;;5065023;28;20022;-35
2021/01/30 04:58:31;;;;;;;3.40;2.20;;;13.80;57.00;;;;;;5063998;28;20032;-35
2021/01/30 05:01:03;;;;;;;2.38;2.17;;;13.80;57.30;;;;;;5063710;28;20052;-35
2021/01/30 05:03:55;;;;;;;3.28;2.00;;;13.80;57.30;;;;;;5063332;28;20029;-35
2021/01/30 05:06:48;;;;;;;2.70;2.15;;;13.70;57.40;;;;;;5063607;28;20033;-35
2021/01/30 05:09:22;;;;;;;2.88;1.90;;;13.70;57.40;;;;;;5063360;28;20100;-35
2021/01/30 05:11:59;;;;;;;2.88;2.20;;;13.70;57.30;;;;;;5063372;28;20036;-35
2021/01/30 05:14:27;;;;;;;2.75;1.83;;;13.60;57.40;;;;;;5063421;28;20025;-35
2021/01/30 05:17:00;;;;;;;2.67;1.95;;;13.60;57.50;;;;;;5063362;28;20063;-35
2021/01/30 05:19:26;;;;;;;3.50;2.00;;;13.60;58.10;;;;;;5062780;28;20025;-35
2021/01/30 05:21:55;;;;;;;4.75;2.10;;;13.50;57.60;;;;;;5063178;28;20060;-35
2021/01/30 05:24:21;;;;;;;3.17;2.20;;;13.50;57.60;;;;;;5063087;28;20041;-35
2021/01/30 05:27:13;;;;;;;6.67;2.30;;;13.50;57.70;;;;;;5063071;28;20079;-35
2021/01/30 05:30:01;;;;;;;3.28;2.10;;;13.50;57.60;;;;;;5062953;28;20017;-35
2021/01/30 05:32:45;;;;;;;3.00;2.28;;;13.40;57.70;;;;;;5062992;28;20043;-35
2021/01/30 05:35:20;;;;;;;2.65;2.13;;;13.40;57.90;;;;;;5064328;28;20033;-35
2021/01/30 05:37:58;;;;;;;3.00;2.10;;;13.40;57.80;;;;;;5063411;28;20088;-36
2021/01/30 05:40:32;;;;;;;3.65;2.17;;;13.40;57.90;;;;;;5077403;28;20056;-35
2021/01/30 05:43:27;;;;;;;3.47;2.13;;;13.30;57.80;;;;;;5096230;28;20129;-35
2021/01/30 05:45:58;;;;;;;2.88;2.33;;;13.30;57.80;;;;;;5063820;28;20048;-35
2021/01/30 05:48:33;;;;;;;2.60;2.08;;;13.30;57.80;;;;;;5078695;28;20055;-39
2021/01/30 05:51:01;;;;;;;2.58;2.15;;;13.20;57.90;;;;;;5076099;28;20081;-35
2021/01/30 05:53:27;;;;;;;3.95;2.20;;;13.20;57.90;;;;;;5062769;28;20017;-35
2021/01/30 05:55:54;;;;;;;2.70;2.03;;;13.20;58.00;;;;;;5064036;28;20123;-35
2021/01/30 05:58:22;;;;;;;2.80;2.28;;;13.20;58.00;;;;;;5062623;28;20028;-35
2021/01/30 06:00:48;;;;;;;;;;;13.10;58.00;;;;;;5063980;28;20057;-35
2021/01/30 06:03:19;;;;;;;2.47;1.85;;;13.10;58.20;;;;;;5095957;28;19919;-35
2021/01/30 06:05:46;;;;;;;3.83;2.50;;;13.10;58.10;;;;;;5066281;28;20028;-35
2021/01/30 06:08:30;;;;;;;2.95;2.10;;;13.10;58.20;;;;;;5063848;28;20093;-35
2021/01/30 06:11:11;;;;;;;2.47;2.20;;;13.00;58.20;;;;;;5061858;28;20020;-35
2021/01/30 06:13:59;;;;;;;4.65;2.47;;;13.00;58.30;;;;;;5062167;28;20055;-35
2021/01/30 06:16:48;;;;;;;3.00;2.33;;;13.00;58.40;;;;;;5062293;28;20092;-35
2021/01/30 06:19:15;;;;;;;;;;;12.90;58.40;;;;;;5064152;28;20028;-35
2021/01/30 06:21:42;;;;;;;4.20;2.50;;;12.90;58.40;;;;;;5061896;28;19909;-35
2021/01/30 06:24:33;;;;;;;3.00;2.28;;;12.90;58.30;;;;;;5062270;28;20036;-34
2021/01/30 06:27:06;;;;;;;3.95;2.40;;;12.90;58.50;;;;;;5062040;28;20033;-35
2021/01/30 06:29:43;;;;;;;4.95;2.60;;;12.80;58.50;;;;;;5062358;28;20029;-35
2021/01/30 06:32:12;;;;;;;3.13;2.47;;;12.80;58.50;;;;;;5062118;28;20123;-35
2021/01/30 06:34:39;;;;;;;2.95;2.20;;;12.80;58.50;;;;;;5063423;28;20025;-34
2021/01/30 06:37:12;;;;;;;3.53;2.38;;;12.80;59.00;;;;;;5061927;28;20067;-35
2021/01/30 06:39:41;;;;;;;3.05;2.33;;;12.80;58.50;;;;;;5062201;28;20775;-35
2021/01/30 06:42:14;;;;;;;3.88;2.58;;;12.70;58.40;;;;;;5062296;28;20029;-35
2021/01/30 06:44:40;;;;;;;4.28;2.22;;;12.70;58.50;;;;;;5061996;28;20025;-35
2021/01/30 06:47:15;;;;;;;3.40;2.33;;;12.70;58.50;;;;;;5061965;28;20052;-35
2021/01/30 06:49:48;;;;;;;4.05;2.60;;;12.70;58.60;;;;;;5063140;28;20029;-35
2021/01/30 06:52:21;;;;;;;3.53;2.40;;;12.60;58.60;;;;;;5062996;28;20159;-35
2021/01/30 06:55:06;;;;;;;2.65;2.30;;;12.60;58.70;;;;;;5063131;28;20017;-35
2021/01/30 06:57:33;;;;;;;4.45;2.40;;;12.60;58.70;;;;;;5063310;28;20021;-35
2021/01/30 07:00:20;;;;;;;3.95;2.67;;;12.60;58.80;;;;;;5061744;28;20041;-35
2021/01/30 07:03:48;;;;;;;3.40;2.30;;;12.50;58.80;;;;;;5061697;28;20039;-35
2021/01/30 07:06:22;;;;;;;3.33;2.55;;;12.50;58.80;;;;;;5060544;28;20033;-35
2021/01/30 07:09:24;;;;;;;10.60;2.83;;;12.50;58.80;;;;;;5044674;28;20140;-35
2021/01/30 07:11:54;;;;;;;3.88;2.38;;;12.40;58.80;;;;;;4942347;29;20036;-35
2021/01/30 07:14:34;;;;;;;3.63;2.38;;;12.40;58.90;;;;;;4943113;29;20049;-35
2021/01/30 07:17:24;;;;;;;4.97;2.63;;;12.40;58.90;;;;;;4943165;29;20051;-35
2021/01/30 07:20:22;;;;;;;2.90;2.33;;;12.40;59.00;;;;;;4943077;29;20031;-35
2021/01/30 07:23:10;;;;;;;5.47;2.77;;;12.30;59.00;;;;;;4944494;29;20044;-35
2021/01/30 07:25:49;;;;;;;4.20;2.60;;;12.30;59.00;;;;;;4946642;29;20027;-37
2021/01/30 07:28:37;;;;;;;4.50;2.97;;;12.30;59.10;;;;;;4946810;29;20039;-35
2021/01/30 07:31:10;;;;;;;2.90;2.13;;;12.30;59.10;;;;;;4946433;29;20091;-35
2021/01/30 07:34:08;;;;;;;3.20;2.50;;;12.30;59.10;;;;;;4946254;29;20299;-36
2021/01/30 07:36:40;;;;;;;5.70;2.83;;;12.20;59.00;;;;;;4930465;29;20032;-35
2021/01/30 07:39:22;;;;;;;3.88;2.72;;;12.20;59.10;;;;;;4946846;29;20258;-35
2021/01/30 07:41:56;;;;;;;3.30;2.42;;;12.20;59.10;;;;;;4966139;28;20063;-35
2021/01/30 07:44:35;;;;;;;3.63;2.50;;;12.20;59.20;;;;;;4985043;28;20420;-35
2021/01/30 07:47:34;;;;;;;4.30;2.67;;;12.10;59.20;;;;;;4999527;28;20374;-35
2021/01/30 07:50:03;;;;;;;3.30;2.65;;;12.10;59.20;;;;;;5044896;28;20048;-35
2021/01/30 07:53:01;;;;;;;3.35;2.80;;;12.10;59.80;;;;;;5065803;28;20029;-35
2021/01/30 07:55:27;;;;;;;3.10;2.42;;;12.00;59.20;;;;;;5064606;28;20052;-35
2021/01/30 07:58:15;;;;;;;4.10;2.40;;;12.00;59.30;;;;;;5066169;28;20029;-35
2021/01/30 08:01:03;;;;;;;3.35;2.13;;;12.00;59.30;;;;;;5068271;28;20061;-35
2021/01/30 08:03:48;;;;;;;3.03;2.22;;;12.00;59.40;;;;;;5084484;28;20047;-35
2021/01/30 08:06:47;;;;;;;3.70;2.45;;;11.90;59.40;;;;;;5086071;28;20024;-35
2021/01/30 08:09:47;;;;;;;3.63;2.55;;;11.90;59.40;;;;;;5064359;28;20539;-35
2021/01/30 08:12:25;;;;;;;3.45;2.47;;;11.90;59.50;;;;;;5063124;28;20037;-35
2021/01/30 08:15:23;;;;;;;3.97;2.83;;;11.90;59.50;;;;;;5081238;28;20048;-35
2021/01/30 08:17:57;;;;;;;5.47;2.78;;;11.80;59.50;;;;;;5064979;28;20037;-35
2021/01/30 08:20:28;;;;;;;2.85;2.55;;;11.90;59.60;;;;;;5096332;28;20029;-35
2021/01/30 08:23:13;;;;;;;4.40;2.95;;;11.80;59.60;;;;;;5097197;28;20041;-35
2021/01/30 08:25:44;;;;;;;2.85;2.50;;;11.80;59.60;;;;;;5097611;28;20033;-35
2021/01/30 08:28:19;;;;;;;3.50;2.80;;;11.80;59.60;;;;;;5097511;28;20047;-35
2021/01/30 08:30:45;;;;;;;3.58;2.55;;;11.80;59.60;;;;;;5097707;28;20027;-35
2021/01/30 08:33:11;;;;;;;3.53;2.70;;;11.70;59.50;;;;;;5097363;28;20045;-35
2021/01/30 08:35:46;;;;;;;4.18;2.38;;;11.70;59.60;;;;;;5064708;28;20047;-35
2021/01/30 08:38:30;;;;;;;4.07;3.05;;;11.70;59.60;;;;;;5065202;28;20029;-35
2021/01/30 08:40:58;;;;;;;3.58;2.33;;;11.70;59.60;;;;;;5065479;28;20491;-35
2021/01/30 08:43:47;;;;;;;4.25;2.78;;;11.60;59.70;;;;;;5063875;28;20095;-35
2021/01/30 08:46:33;;;;;;;4.00;2.70;;;11.60;59.70;;;;;;5063981;28;20033;-35
2021/01/30 08:49:13;;;;;;;3.58;2.50;;;11.60;59.80;;;;;;5064805;28;20029;-35
2021/01/30 08:51:42;;;;;;;4.00;2.95;;;11.60;59.80;;;;;;5063482;28;20047;-35
2021/01/30 08:54:34;;;;;;;4.07;2.70;;;11.60;59.80;;;;;;5065188;28;20036;-35
2021/01/30 08:57:01;;;;;;;5.10;2.60;;;11.50;59.90;;;;;;5063568;28;20444;-35
2021/01/30 08:59:46;;;;;;;3.88;2.72;;;11.50;59.90;;;;;;5063262;28;20075;-35
2021/01/30 09:02:34;;;;;;;3.92;2.50;;;11.50;59.90;;;;;;5063465;28;20045;-35
2021/01/30 09:05:11;;;;;;;4.10;3.10;;;11.50;60.00;;;;;;5063378;28;20668;-35
2021/01/30 09:07:50;;;;;;;3.70;2.67;;;11.50;60.00;;;;;;5063409;28;20059;-35
2021/01/30 09:10:22;;;;;;;4.28;3.03;;;11.40;60.00;;;;;;5063628;28;20056;-35
2021/01/30 09:13:04;;;;;;;3.80;2.53;;;11.40;60.00;;;;;;5064274;28;20114;-35
2021/01/30 09:15:42;;;;;;;4.30;2.75;;;11.40;60.00;;;;;;5063359;28;20025;-35
2021/01/30 09:18:14;;;;;;;3.75;2.60;;;11.40;60.10;;;;;;5064287;28;20607;-35
2021/01/30 09:21:06;;;;;;;4.60;2.95;;;11.40;60.10;;;;;;5064374;28;20028;-35
2021/01/30 09:23:50;;;;;;;4.22;2.95;;;11.30;60.20;;;;;;5063139;28;20040;-35
2021/01/30 09:26:39;;;;;;;3.83;2.70;;;11.30;60.20;;;;;;5063102;28;20017;-35
2021/01/30 09:29:05;;;;;;;4.50;3.05;;;11.30;60.30;;;;;;5062947;28;20183;-35
2021/01/30 09:31:31;;;;;;;4.50;2.85;;;11.30;60.30;;;;;;5063021;28;20108;-35
2021/01/30 09:34:06;;;;;;;4.32;2.97;;;11.20;60.20;;;;;;5064038;28;20025;-35
2021/01/30 09:36:47;;;;;;;3.60;2.80;;;11.20;60.20;;;;;;5062869;28;20547;-35
2021/01/30 09:39:29;;;;;;;4.03;2.67;;;11.20;60.20;;;;;;5063968;28;20052;-35
2021/01/30 09:42:10;;;;;;;4.60;2.95;;;11.20;60.30;;;;;;5060608;28;20050;-35
2021/01/30 09:44:36;;;;;;;4.63;2.60;;;11.20;60.40;;;;;;5064261;28;20100;-35
2021/01/30 09:47:07;;;;;;;8.52;3.10;;;11.20;60.30;;;;;;5064014;28;20047;-35
2021/01/30 09:49:38;;;;;;;4.60;2.80;;;11.10;60.40;;;;;;5063574;28;20040;-35
2021/01/30 09:52:05;;;;;;;3.40;2.55;;;11.10;60.50;;;;;;5063807;28;20058;-35
2021/01/30 09:54:31;;;;;;;4.40;2.90;;;11.10;60.50;;;;;;5062563;28;20111;-35
2021/01/30 09:57:05;;;;;;;4.32;2.95;;;11.10;60.50;;;;;;5062550;28;20043;-35
2021/01/30 09:59:31;;;;;;;3.78;2.90;;;11.10;60.60;;;;;;5061913;28;20041;-35
2021/01/30 10:02:14;;;;;;;5.45;2.75;;;11.00;60.50;;;;;;5062670;28;20040;-35
2021/01/30 10:04:40;;;;;;;5.75;3.00;;;11.00;60.70;;;;;;5052266;28;20017;-35
2021/01/30 10:07:09;;;;;;;4.53;3.00;;;11.00;60.70;;;;;;5063784;28;20036;-35
2021/01/30 10:09:40;;;;;;;3.85;2.75;;;11.00;60.80;;;;;;5063420;28;20095;-35
2021/01/30 10:12:06;;;;;;;3.83;2.90;;;11.00;60.80;;;;;;5062658;28;20099;-35
2021/01/30 10:14:45;;;;;;;6.03;3.35;;;10.90;60.70;;;;;;5062392;28;20025;-35
2021/01/30 10:17:15;;;;;;;5.03;3.42;;;10.90;60.90;;;;;;5062510;28;20032;-35
2021/01/30 10:19:41;;;;;;;4.55;3.00;;;10.90;60.80;;;;;;5062152;28;20033;-35
2021/01/30 10:22:21;;;;;;;5.75;3.13;;;10.90;60.90;;;;;;5063639;28;20032;-35
2021/01/30 10:24:51;;;;;;;4.63;3.25;;;10.90;60.90;;;;;;5063692;28;20037;-35
2021/01/30 10:27:18;;;;;;;5.18;3.08;;;10.90;60.90;;;;;;5063552;28;20052;-35
2021/01/30 10:29:44;;;;;;;;;;;10.80;61.00;;;;;;5063753;28;20032;-35
2021/01/30 10:32:19;;;;;;;4.82;2.92;;;10.80;61.00;;;;;;5095690;28;19904;-35
2021/01/30 10:34:47;;;;;;;3.80;2.88;;;10.80;61.10;;;;;;5062056;28;20029;-35
2021/01/30 10:37:18;;;;;;;4.78;3.10;;;10.80;61.10;;;;;;5063458;28;20044;-35
2021/01/30 10:39:51;;;;;;;3.85;3.13;;;10.80;61.10;;;;;;5063142;28;20048;-35
2021/01/30 10:42:21;;;;;;;4.22;3.22;;;10.70;61.10;;;;;;5062165;28;20041;-35
2021/01/30 10:44:48;;;;;;;5.10;2.95;;;10.70;61.10;;;;;;5061955;28;20025;-35
2021/01/30 10:47:14;;;;;;;4.78;3.42;;;10.70;61.10;;;;;;5062112;28;20025;-35
2021/01/30 10:49:40;;;;;;;5.72;3.50;;;10.70;61.20;;;;;;5061598;28;20060;-35
2021/01/30 10:52:08;;;;;;;4.32;3.00;;;10.70;61.20;;;;;;5063139;28;20025;-35
2021/01/30 10:54:35;;;;;;;5.03;3.20;;;10.70;61.30;;;;;;5053462;28;20470;-35
2021/01/30 10:57:07;;;;;;;4.47;3.38;;;10.60;61.20;;;;;;5063611;28;20088;-35
2021/01/30 11:00:03;;;;;;;5.30;3.20;;;10.60;61.30;;;;;;5066841;28;20052;-35
2021/01/30 11:02:36;;;;;;;5.70;3.60;;;10.60;61.40;;;;;;5067020;28;20040;-35
2021/01/30 11:05:19;;;;;;;4.53;3.25;;;10.60;61.40;;;;;;5067009;28;20024;-35
2021/01/30 11:07:53;;;;;;;5.25;3.47;;;10.60;61.50;;;;;;5065896;28;20025;-35
2021/01/30 11:10:32;;;;;;;3.65;2.85;;;10.60;61.50;;;;;;5066033;28;20023;-35
2021/01/30 11:13:20;;;;;;;4.78;3.30;;;10.50;61.50;;;;;;5065291;28;20088;-35
2021/01/30 11:15:49;;;;;;;5.57;3.08;;;10.50;61.50;;;;;;5067031;28;20371;-35
2021/01/30 11:18:29;;;;;;;4.30;3.17;;;10.50;61.60;;;;;;5081730;28;20090;-35
2021/01/30 11:20:56;;;;;;;4.63;3.00;;;10.50;61.60;;;;;;5066537;28;20413;-35
2021/01/30 11:23:49;;;;;;;6.80;3.83;;;10.40;61.60;;;;;;5066589;28;20037;-35
2021/01/30 11:26:16;;;;;;;5.97;3.95;;;10.40;61.60;;;;;;5066319;28;20171;-35
2021/01/30 11:28:43;;;;;;;5.68;3.40;;;10.40;61.70;;;;;;5065213;28;20029;-35
2021/01/30 11:31:09;;;;;;;4.88;3.17;;;10.40;61.70;;;;;;5098428;28;20033;-35
2021/01/30 11:33:35;;;;;;;5.97;3.38;;;10.40;61.70;;;;;;5081562;28;20025;-35
2021/01/30 11:36:02;;;;;;;4.95;3.28;;;10.40;61.80;;;;;;5066576;28;20057;-35
2021/01/30 11:38:29;;;;;;;4.53;3.30;;;10.30;61.70;;;;;;5066629;28;20032;-35
2021/01/30 11:40:56;;;;;;;5.53;3.67;;;10.30;61.80;;;;;;5066692;28;20036;-34
2021/01/30 11:43:23;;;;;;;4.97;3.60;;;10.30;61.90;;;;;;5065947;28;20082;-35
2021/01/30 11:45:49;;;;;;;4.40;3.22;;;10.30;61.80;;;;;;5065763;28;20036;-35
2021/01/30 11:48:16;;;;;;;6.40;3.72;;;10.30;61.90;;;;;;5067737;28;20029;-35
2021/01/30 11:50:42;;;;;;;6.10;4.00;;;10.30;61.90;;;;;;5065833;28;20026;-35
2021/01/30 11:53:13;;;;;;;5.55;3.70;;;10.30;61.90;;;;;;5066184;28;20055;-35
2021/01/30 11:55:40;;;;;;;5.63;3.95;;;10.20;61.90;;;;;;5064795;28;20032;-35
2021/01/30 11:58:06;;;;;;;5.13;3.72;;;10.20;61.90;;;;;;5066295;28;20029;-35
2021/01/30 12:00:32;;;;;;;5.13;3.70;;;10.20;62.00;;;;;;5065760;28;20439;-34
2021/01/30 12:02:59;;;;;;;5.88;4.07;;;10.20;62.00;;;;;;5064460;28;20041;-35
2021/01/30 12:05:25;;;;;;;5.90;4.15;;;10.20;62.10;;;;;;5064582;28;20021;-34
2021/01/30 12:07:51;;;;;;;4.78;3.45;;;10.20;62.10;;;;;;5066054;28;20116;-36
2021/01/30 12:10:18;;;;;;;6.07;3.90;;;10.10;62.10;;;;;;5075360;28;20057;-35
2021/01/30 12:12:45;;;;;;;6.80;3.75;;;10.10;62.20;;;;;;5072141;28;20034;-35
2021/01/30 12:15:12;;;;;;;5.40;3.63;;;10.10;62.20;;;;;;5065907;28;20037;-35
2021/01/30 12:17:45;;;;;;;4.70;3.75;;;10.10;62.20;;;;;;5065629;28;20029;-35
2021/01/30 12:20:19;;;;;;;6.05;3.90;;;10.10;62.30;;;;;;5097792;28;20798;-35
2021/01/30 12:22:46;;;;;;;5.70;3.75;;;10.10;62.30;;;;;;5065311;28;20040;-36
2021/01/30 12:25:12;;;;;;;6.75;4.22;;;10.00;62.30;;;;;;5065793;28;20114;-35
2021/01/30 12:27:40;;;;;;;6.10;3.72;;;10.00;62.30;;;;;;5065540;28;20029;-34
2021/01/30 12:30:07;;;;;;;6.40;4.22;;;10.00;62.40;;;;;;5080459;28;20025;-34
2021/01/30 12:32:35;;;;;;;7.30;4.27;;;10.00;62.40;;;;;;5097334;28;20025;-34
2021/01/30 12:35:03;;;;;;;5.80;3.85;;;10.00;62.40;;;;;;5065180;28;20273;-34
2021/01/30 12:37:29;;;;;;;6.63;4.07;;;10.00;62.50;;;;;;5065521;28;20672;-35
2021/01/30 12:39:55;;;;;;;6.47;4.43;;;9.90;62.40;;;;;;5097440;28;20029;-35
2021/01/30 12:42:21;;;;;;;5.80;4.20;;;9.90;62.50;;;;;;5065303;28;20382;-35
2021/01/30 12:44:47;;;;;;;6.28;4.15;;;9.90;62.60;;;;;;5065168;28;20056;-35
2021/01/30 12:47:29;;;;;;;6.60;4.28;;;9.90;62.50;;;;;;5065237;28;20044;-35
2021/01/30 12:49:55;;;;;;;5.38;3.88;;;9.90;62.60;;;;;;5063728;28;20021;-35
2021/01/30 12:52:21;;;;;;;6.88;4.53;;;9.90;62.60;;;;;;5063523;28;20171;-35
2021/01/30 12:54:48;;;;;;;5.43;4.55;;;9.80;62.60;;;;;;5065024;28;20032;-35
2021/01/30 12:57:14;;;;;;;5.43;3.67;;;9.80;62.60;;;;;;5064784;28;20044;-35
2021/01/30 12:59:40;;;;;;;6.45;4.70;;;9.80;62.60;;;;;;5064799;28;20116;-35
2021/01/30 13:02:06;;;;;;;7.28;4.30;;;9.80;62.80;;;;;;5064517;28;20032;-35
2021/01/30 13:04:32;;;;;;;6.93;4.07;;;9.80;62.70;;;;;;5064805;28;20037;-35
2021/01/30 13:06:59;;;;;;;6.47;4.38;;;9.70;62.70;;;;;;5064593;28;20036;-35
2021/01/30 13:09:25;;;;;;;6.22;4.13;;;9.80;62.70;;;;;;5064639;28;20055;-35
2021/01/30 13:11:52;;;;;;;3.90;2.80;;;9.70;62.70;;;;;;5064773;28;20033;-35
2021/01/30 13:14:18;;;;;;;8.10;4.97;;;9.70;62.60;;;;;;5064826;28;20036;-34
2021/01/30 13:16:44;;;;;;;5.82;4.10;;;9.70;62.70;;;;;;5063248;28;20174;-35
2021/01/30 13:19:12;;;;;;;5.27;3.93;;;9.70;62.70;;;;;;5064464;28;20424;-35